sensor_id;sensor_type;location;lat;lon;timestamp;P1;durP1;ratioP1;P2;durP2;ratioP2
53040;SDS011;39326;42.650;23.248;2023-10-08T00:02:22;3.40;;;3.07;;
53040;SDS011;39326;42.650;23.248;2023-10-08T00:04:54;5.60;;;3.60;;
53040;SDS011;39326;42.650;23.248;2023-10-08T00:07:25;3.83;;;3.40;;
53040;SDS011;39326;42.650;23.248;2023-10-08T00:09:51;6.20;;;3.60;;
53040;SDS011;39326;42.650;23.248;2023-10-08T00:12:17;3.27;;;2.90;;
53040;SDS011;39326;42.650;23.248;2023-10-08T00:14:44;4.10;;;3.37;;
53040;SDS011;39326;42.650;23.248;2023-10-08T00:17:12;4.90;;;3.60;;
53040;SDS011;39326;42.650;23.248;2023-10-08T00:19:39;4.85;;;3.63;;
53040;SDS011;39326;42.650;23.248;2023-10-08T00:22:06;4.03;;;3.28;;
53040;SDS011;39326;42.650;23.248;2023-10-08T00:24:32;4.50;;;2.80;;
53040;SDS011;39326;42.650;23.248;2023-10-08T00:26:58;4.57;;;3.50;;
53040;SDS011;39326;42.650;23.248;2023-10-08T00:29:25;4.00;;;3.35;;
53040;SDS011;39326;42.650;23.248;2023-10-08T00:31:56;4.50;;;3.25;;
53040;SDS011;39326;42.650;23.248;2023-10-08T00:34:22;4.47;;;3.05;;
53040;SDS011;39326;42.650;23.248;2023-10-08T00:36:49;4.37;;;3.57;;
53040;SDS011;39326;42.650;23.248;2023-10-08T00:39:15;4.95;;;2.97;;
53040;SDS011;39326;42.650;23.248;2023-10-08T00:41:48;6.63;;;3.40;;
53040;SDS011;39326;42.650;23.248;2023-10-08T00:44:14;4.30;;;3.45;;
53040;SDS011;39326;42.650;23.248;2023-10-08T00:46:41;3.60;;;3.07;;
53040;SDS011;39326;42.650;23.248;2023-10-08T00:49:12;3.75;;;3.10;;
53040;SDS011;39326;42.650;23.248;2023-10-08T00:51:47;4.90;;;3.30;;
53040;SDS011;39326;42.650;23.248;2023-10-08T00:54:43;5.93;;;3.40;;
53040;SDS011;39326;42.650;23.248;2023-10-08T00:57:34;4.40;;;2.80;;
53040;SDS011;39326;42.650;23.248;2023-10-08T01:00:02;3.63;;;3.17;;
53040;SDS011;39326;42.650;23.248;2023-10-08T01:02:56;4.15;;;2.53;;
53040;SDS011;39326;42.650;23.248;2023-10-08T01:05:26;3.85;;;2.80;;
53040;SDS011;39326;42.650;23.248;2023-10-08T01:08:08;3.75;;;2.72;;
53040;SDS011;39326;42.650;23.248;2023-10-08T01:10:38;3.45;;;2.85;;
53040;SDS011;39326;42.650;23.248;2023-10-08T01:13:08;4.75;;;2.80;;
53040;SDS011;39326;42.650;23.248;2023-10-08T01:15:41;3.25;;;2.40;;
53040;SDS011;39326;42.650;23.248;2023-10-08T01:18:09;5.00;;;3.47;;
53040;SDS011;39326;42.650;23.248;2023-10-08T01:20:42;3.90;;;2.72;;
53040;SDS011;39326;42.650;23.248;2023-10-08T01:23:17;3.80;;;3.30;;
53040;SDS011;39326;42.650;23.248;2023-10-08T01:25:47;4.28;;;3.20;;
53040;SDS011;39326;42.650;23.248;2023-10-08T01:28:17;3.60;;;3.22;;
53040;SDS011;39326;42.650;23.248;2023-10-08T01:30:53;4.35;;;3.13;;
53040;SDS011;39326;42.650;23.248;2023-10-08T01:33:20;3.67;;;3.30;;
53040;SDS011;39326;42.650;23.248;2023-10-08T01:35:47;3.20;;;2.90;;
53040;SDS011;39326;42.650;23.248;2023-10-08T01:38:15;3.92;;;2.95;;
53040;SDS011;39326;42.650;23.248;2023-10-08T01:40:46;4.03;;;3.20;;
53040;SDS011;39326;42.650;23.248;2023-10-08T01:43:15;3.97;;;3.20;;
53040;SDS011;39326;42.650;23.248;2023-10-08T01:45:42;4.22;;;3.20;;
53040;SDS011;39326;42.650;23.248;2023-10-08T01:48:08;3.13;;;2.83;;
53040;SDS011;39326;42.650;23.248;2023-10-08T01:50:37;3.97;;;3.20;;
53040;SDS011;39326;42.650;23.248;2023-10-08T01:53:03;5.82;;;3.65;;
53040;SDS011;39326;42.650;23.248;2023-10-08T01:55:32;4.32;;;3.33;;
53040;SDS011;39326;42.650;23.248;2023-10-08T01:58:10;4.32;;;3.28;;
53040;SDS011;39326;42.650;23.248;2023-10-08T02:00:41;4.45;;;2.90;;
53040;SDS011;39326;42.650;23.248;2023-10-08T02:03:07;4.85;;;3.42;;
53040;SDS011;39326;42.650;23.248;2023-10-08T02:05:33;4.67;;;3.70;;
53040;SDS011;39326;42.650;23.248;2023-10-08T02:07:59;5.27;;;3.43;;
53040;SDS011;39326;42.650;23.248;2023-10-08T02:10:26;4.77;;;3.70;;
53040;SDS011;39326;42.650;23.248;2023-10-08T02:12:51;5.10;;;3.63;;
53040;SDS011;39326;42.650;23.248;2023-10-08T02:15:16;4.10;;;3.37;;
53040;SDS011;39326;42.650;23.248;2023-10-08T02:17:42;4.67;;;3.50;;
53040;SDS011;39326;42.650;23.248;2023-10-08T02:20:08;4.10;;;3.40;;
53040;SDS011;39326;42.650;23.248;2023-10-08T02:22:34;4.20;;;3.23;;
53040;SDS011;39326;42.650;23.248;2023-10-08T02:25:00;4.68;;;3.30;;
53040;SDS011;39326;42.650;23.248;2023-10-08T02:27:29;5.05;;;3.75;;
53040;SDS011;39326;42.650;23.248;2023-10-08T02:29:58;6.00;;;4.10;;
53040;SDS011;39326;42.650;23.248;2023-10-08T02:32:23;4.72;;;3.88;;
53040;SDS011;39326;42.650;23.248;2023-10-08T02:34:49;4.93;;;3.83;;
53040;SDS011;39326;42.650;23.248;2023-10-08T02:37:15;4.30;;;3.58;;
53040;SDS011;39326;42.650;23.248;2023-10-08T02:39:41;5.68;;;4.30;;
53040;SDS011;39326;42.650;23.248;2023-10-08T02:42:08;5.43;;;3.85;;
53040;SDS011;39326;42.650;23.248;2023-10-08T02:44:36;4.88;;;4.15;;
53040;SDS011;39326;42.650;23.248;2023-10-08T02:47:11;5.75;;;4.03;;
53040;SDS011;39326;42.650;23.248;2023-10-08T02:49:37;6.75;;;4.20;;
53040;SDS011;39326;42.650;23.248;2023-10-08T02:52:05;5.00;;;3.67;;
53040;SDS011;39326;42.650;23.248;2023-10-08T02:54:33;4.05;;;3.53;;
53040;SDS011;39326;42.650;23.248;2023-10-08T02:57:01;5.10;;;3.80;;
53040;SDS011;39326;42.650;23.248;2023-10-08T02:59:35;5.60;;;3.92;;
53040;SDS011;39326;42.650;23.248;2023-10-08T03:02:11;3.90;;;3.35;;
53040;SDS011;39326;42.650;23.248;2023-10-08T03:04:44;5.00;;;3.73;;
53040;SDS011;39326;42.650;23.248;2023-10-08T03:07:12;4.13;;;3.45;;
53040;SDS011;39326;42.650;23.248;2023-10-08T03:09:50;4.40;;;3.87;;
53040;SDS011;39326;42.650;23.248;2023-10-08T03:12:28;5.28;;;3.88;;
53040;SDS011;39326;42.650;23.248;2023-10-08T03:14:57;4.67;;;3.80;;
53040;SDS011;39326;42.650;23.248;2023-10-08T03:17:40;4.78;;;4.07;;
53040;SDS011;39326;42.650;23.248;2023-10-08T03:20:16;3.78;;;3.42;;
53040;SDS011;39326;42.650;23.248;2023-10-08T03:23:00;4.22;;;3.33;;
53040;SDS011;39326;42.650;23.248;2023-10-08T03:25:30;4.82;;;3.88;;
53040;SDS011;39326;42.650;23.248;2023-10-08T03:27:55;5.37;;;4.10;;
53040;SDS011;39326;42.650;23.248;2023-10-08T03:30:24;6.10;;;3.70;;
53040;SDS011;39326;42.650;23.248;2023-10-08T03:32:51;5.78;;;4.03;;
53040;SDS011;39326;42.650;23.248;2023-10-08T03:35:20;5.95;;;3.88;;
53040;SDS011;39326;42.650;23.248;2023-10-08T03:37:53;4.35;;;3.50;;
53040;SDS011;39326;42.650;23.248;2023-10-08T03:40:19;5.00;;;3.90;;
53040;SDS011;39326;42.650;23.248;2023-10-08T03:43:07;6.43;;;3.70;;
53040;SDS011;39326;42.650;23.248;2023-10-08T03:45:40;5.93;;;4.13;;
53040;SDS011;39326;42.650;23.248;2023-10-08T03:48:19;7.10;;;3.88;;
53040;SDS011;39326;42.650;23.248;2023-10-08T03:50:47;4.57;;;3.70;;
53040;SDS011;39326;42.650;23.248;2023-10-08T03:53:21;4.57;;;4.03;;
53040;SDS011;39326;42.650;23.248;2023-10-08T03:55:48;4.87;;;3.50;;
53040;SDS011;39326;42.650;23.248;2023-10-08T03:58:17;4.97;;;3.90;;
53040;SDS011;39326;42.650;23.248;2023-10-08T04:00:54;6.18;;;3.97;;
53040;SDS011;39326;42.650;23.248;2023-10-08T04:03:33;5.07;;;4.22;;
53040;SDS011;39326;42.650;23.248;2023-10-08T04:06:19;4.55;;;3.88;;
53040;SDS011;39326;42.650;23.248;2023-10-08T04:08:53;4.77;;;4.03;;
53040;SDS011;39326;42.650;23.248;2023-10-08T04:11:34;5.25;;;3.90;;
53040;SDS011;39326;42.650;23.248;2023-10-08T04:14:19;4.90;;;3.60;;
53040;SDS011;39326;42.650;23.248;2023-10-08T04:16:48;4.47;;;4.00;;
53040;SDS011;39326;42.650;23.248;2023-10-08T04:19:20;3.88;;;3.15;;
53040;SDS011;39326;42.650;23.248;2023-10-08T04:21:51;4.83;;;3.83;;
53040;SDS011;39326;42.650;23.248;2023-10-08T04:24:21;5.70;;;3.97;;
53040;SDS011;39326;42.650;23.248;2023-10-08T04:26:54;4.97;;;3.80;;
53040;SDS011;39326;42.650;23.248;2023-10-08T04:29:23;5.10;;;3.90;;
53040;SDS011;39326;42.650;23.248;2023-10-08T04:31:50;4.43;;;3.42;;
53040;SDS011;39326;42.650;23.248;2023-10-08T04:34:26;5.03;;;3.70;;
53040;SDS011;39326;42.650;23.248;2023-10-08T04:36:55;4.93;;;3.40;;
53040;SDS011;39326;42.650;23.248;2023-10-08T04:39:26;4.33;;;3.63;;
53040;SDS011;39326;42.650;23.248;2023-10-08T04:41:59;5.18;;;3.58;;
53040;SDS011;39326;42.650;23.248;2023-10-08T04:44:32;4.00;;;3.07;;
53040;SDS011;39326;42.650;23.248;2023-10-08T04:46:57;4.85;;;4.00;;
53040;SDS011;39326;42.650;23.248;2023-10-08T04:49:30;4.50;;;3.55;;
53040;SDS011;39326;42.650;23.248;2023-10-08T04:54:26;4.10;;;3.30;;
53040;SDS011;39326;42.650;23.248;2023-10-08T04:56:59;4.43;;;3.47;;
53040;SDS011;39326;42.650;23.248;2023-10-08T04:59:29;3.80;;;3.30;;
53040;SDS011;39326;42.650;23.248;2023-10-08T05:02:00;7.28;;;4.18;;
53040;SDS011;39326;42.650;23.248;2023-10-08T05:04:48;4.07;;;3.40;;
53040;SDS011;39326;42.650;23.248;2023-10-08T05:07:18;5.72;;;3.65;;
53040;SDS011;39326;42.650;23.248;2023-10-08T05:10:05;5.00;;;3.78;;
53040;SDS011;39326;42.650;23.248;2023-10-08T05:12:31;3.85;;;3.25;;
53040;SDS011;39326;42.650;23.248;2023-10-08T05:15:02;5.13;;;3.70;;
53040;SDS011;39326;42.650;23.248;2023-10-08T05:17:41;4.72;;;3.53;;
53040;SDS011;39326;42.650;23.248;2023-10-08T05:20:17;4.43;;;3.33;;
53040;SDS011;39326;42.650;23.248;2023-10-08T05:23:07;4.18;;;3.17;;
53040;SDS011;39326;42.650;23.248;2023-10-08T05:25:50;6.72;;;3.53;;
53040;SDS011;39326;42.650;23.248;2023-10-08T05:28:37;3.92;;;3.10;;
53040;SDS011;39326;42.650;23.248;2023-10-08T05:31:23;8.50;;;3.38;;
53040;SDS011;39326;42.650;23.248;2023-10-08T05:34:07;5.63;;;3.58;;
53040;SDS011;39326;42.650;23.248;2023-10-08T05:36:42;4.95;;;3.55;;
53040;SDS011;39326;42.650;23.248;2023-10-08T05:39:27;4.88;;;3.47;;
53040;SDS011;39326;42.650;23.248;2023-10-08T05:42:05;4.65;;;3.70;;
53040;SDS011;39326;42.650;23.248;2023-10-08T05:44:55;4.05;;;3.63;;
53040;SDS011;39326;42.650;23.248;2023-10-08T05:47:35;3.92;;;3.30;;
53040;SDS011;39326;42.650;23.248;2023-10-08T05:50:02;3.53;;;3.03;;
53040;SDS011;39326;42.650;23.248;2023-10-08T05:52:44;4.13;;;2.92;;
53040;SDS011;39326;42.650;23.248;2023-10-08T05:55:22;4.45;;;3.65;;
53040;SDS011;39326;42.650;23.248;2023-10-08T05:57:54;4.22;;;3.20;;
53040;SDS011;39326;42.650;23.248;2023-10-08T06:00:53;4.65;;;3.42;;
53040;SDS011;39326;42.650;23.248;2023-10-08T06:03:33;4.57;;;3.72;;
53040;SDS011;39326;42.650;23.248;2023-10-08T06:06:24;3.85;;;3.20;;
53040;SDS011;39326;42.650;23.248;2023-10-08T06:09:02;5.05;;;3.47;;
53040;SDS011;39326;42.650;23.248;2023-10-08T06:11:47;5.95;;;3.42;;
53040;SDS011;39326;42.650;23.248;2023-10-08T06:14:33;4.35;;;3.42;;
53040;SDS011;39326;42.650;23.248;2023-10-08T06:17:17;3.88;;;3.47;;
53040;SDS011;39326;42.650;23.248;2023-10-08T06:19:59;5.60;;;3.38;;
53040;SDS011;39326;42.650;23.248;2023-10-08T06:22:26;4.18;;;3.55;;
53040;SDS011;39326;42.650;23.248;2023-10-08T06:24:53;4.88;;;3.80;;
53040;SDS011;39326;42.650;23.248;2023-10-08T06:27:38;3.53;;;3.03;;
53040;SDS011;39326;42.650;23.248;2023-10-08T06:30:03;4.22;;;3.78;;
53040;SDS011;39326;42.650;23.248;2023-10-08T06:32:30;3.88;;;3.33;;
53040;SDS011;39326;42.650;23.248;2023-10-08T06:34:55;4.45;;;3.28;;
53040;SDS011;39326;42.650;23.248;2023-10-08T06:37:21;4.97;;;3.13;;
53040;SDS011;39326;42.650;23.248;2023-10-08T06:39:46;4.10;;;3.25;;
53040;SDS011;39326;42.650;23.248;2023-10-08T06:42:12;4.65;;;3.40;;
53040;SDS011;39326;42.650;23.248;2023-10-08T06:44:40;5.13;;;3.97;;
53040;SDS011;39326;42.650;23.248;2023-10-08T06:47:08;4.35;;;3.38;;
53040;SDS011;39326;42.650;23.248;2023-10-08T06:49:34;3.88;;;3.17;;
53040;SDS011;39326;42.650;23.248;2023-10-08T06:52:01;4.20;;;3.63;;
53040;SDS011;39326;42.650;23.248;2023-10-08T06:54:26;4.15;;;3.53;;
53040;SDS011;39326;42.650;23.248;2023-10-08T06:56:55;4.68;;;3.13;;
53040;SDS011;39326;42.650;23.248;2023-10-08T06:59:21;3.72;;;3.03;;
53040;SDS011;39326;42.650;23.248;2023-10-08T07:01:50;4.03;;;2.70;;
53040;SDS011;39326;42.650;23.248;2023-10-08T07:04:16;5.43;;;3.45;;
53040;SDS011;39326;42.650;23.248;2023-10-08T07:06:46;4.82;;;3.88;;
53040;SDS011;39326;42.650;23.248;2023-10-08T07:09:13;4.57;;;3.20;;
53040;SDS011;39326;42.650;23.248;2023-10-08T07:11:50;4.40;;;3.58;;
53040;SDS011;39326;42.650;23.248;2023-10-08T07:14:20;4.35;;;3.53;;
53040;SDS011;39326;42.650;23.248;2023-10-08T07:16:51;5.38;;;3.65;;
53040;SDS011;39326;42.650;23.248;2023-10-08T07:19:23;4.88;;;3.25;;
53040;SDS011;39326;42.650;23.248;2023-10-08T07:21:57;3.70;;;3.22;;
53040;SDS011;39326;42.650;23.248;2023-10-08T07:24:28;3.45;;;2.75;;
53040;SDS011;39326;42.650;23.248;2023-10-08T07:26:55;4.68;;;3.33;;
53040;SDS011;39326;42.650;23.248;2023-10-08T07:29:20;3.80;;;3.33;;
53040;SDS011;39326;42.650;23.248;2023-10-08T07:31:46;3.42;;;3.10;;
53040;SDS011;39326;42.650;23.248;2023-10-08T07:34:17;3.67;;;3.17;;
53040;SDS011;39326;42.650;23.248;2023-10-08T07:36:52;4.28;;;3.40;;
53040;SDS011;39326;42.650;23.248;2023-10-08T07:39:20;4.25;;;3.50;;
53040;SDS011;39326;42.650;23.248;2023-10-08T07:41:52;3.58;;;3.15;;
53040;SDS011;39326;42.650;23.248;2023-10-08T07:44:19;6.57;;;3.85;;
53040;SDS011;39326;42.650;23.248;2023-10-08T07:46:47;3.67;;;3.20;;
53040;SDS011;39326;42.650;23.248;2023-10-08T07:49:13;5.45;;;3.83;;
53040;SDS011;39326;42.650;23.248;2023-10-08T07:51:39;4.25;;;3.20;;
53040;SDS011;39326;42.650;23.248;2023-10-08T07:54:06;4.38;;;3.63;;
53040;SDS011;39326;42.650;23.248;2023-10-08T07:56:34;6.22;;;3.78;;
53040;SDS011;39326;42.650;23.248;2023-10-08T07:59:02;5.63;;;3.80;;
53040;SDS011;39326;42.650;23.248;2023-10-08T08:01:33;4.15;;;3.60;;
53040;SDS011;39326;42.650;23.248;2023-10-08T08:03:59;4.22;;;3.75;;
53040;SDS011;39326;42.650;23.248;2023-10-08T08:06:25;4.95;;;3.58;;
53040;SDS011;39326;42.650;23.248;2023-10-08T08:08:51;6.38;;;3.60;;
53040;SDS011;39326;42.650;23.248;2023-10-08T08:11:16;4.10;;;3.65;;
53040;SDS011;39326;42.650;23.248;2023-10-08T08:13:51;6.10;;;4.07;;
53040;SDS011;39326;42.650;23.248;2023-10-08T08:16:16;5.88;;;4.07;;
53040;SDS011;39326;42.650;23.248;2023-10-08T08:18:45;4.50;;;3.90;;
53040;SDS011;39326;42.650;23.248;2023-10-08T08:21:12;6.60;;;4.00;;
53040;SDS011;39326;42.650;23.248;2023-10-08T08:23:45;4.72;;;3.90;;
53040;SDS011;39326;42.650;23.248;2023-10-08T08:26:18;4.43;;;4.00;;
53040;SDS011;39326;42.650;23.248;2023-10-08T08:28:58;5.32;;;4.82;;
53040;SDS011;39326;42.650;23.248;2023-10-08T08:31:25;4.20;;;3.63;;
53040;SDS011;39326;42.650;23.248;2023-10-08T08:33:51;4.72;;;3.95;;
53040;SDS011;39326;42.650;23.248;2023-10-08T08:36:26;7.63;;;4.63;;
53040;SDS011;39326;42.650;23.248;2023-10-08T08:38:52;5.13;;;3.42;;
53040;SDS011;39326;42.650;23.248;2023-10-08T08:41:19;4.72;;;3.88;;
53040;SDS011;39326;42.650;23.248;2023-10-08T08:43:50;8.05;;;4.10;;
53040;SDS011;39326;42.650;23.248;2023-10-08T08:46:37;7.10;;;4.75;;
53040;SDS011;39326;42.650;23.248;2023-10-08T08:49:04;6.28;;;4.43;;
53040;SDS011;39326;42.650;23.248;2023-10-08T08:51:32;7.18;;;4.65;;
53040;SDS011;39326;42.650;23.248;2023-10-08T08:54:00;5.88;;;4.40;;
53040;SDS011;39326;42.650;23.248;2023-10-08T08:56:31;5.05;;;4.03;;
53040;SDS011;39326;42.650;23.248;2023-10-08T08:58:59;4.28;;;3.88;;
53040;SDS011;39326;42.650;23.248;2023-10-08T09:01:26;4.63;;;3.78;;
53040;SDS011;39326;42.650;23.248;2023-10-08T09:04:00;5.13;;;4.43;;
53040;SDS011;39326;42.650;23.248;2023-10-08T09:06:29;5.40;;;4.82;;
53040;SDS011;39326;42.650;23.248;2023-10-08T09:08:58;5.03;;;4.32;;
53040;SDS011;39326;42.650;23.248;2023-10-08T09:11:42;4.68;;;4.18;;
53040;SDS011;39326;42.650;23.248;2023-10-08T09:14:08;5.07;;;4.43;;
53040;SDS011;39326;42.650;23.248;2023-10-08T09:16:35;4.68;;;4.10;;
53040;SDS011;39326;42.650;23.248;2023-10-08T09:19:02;5.50;;;4.70;;
53040;SDS011;39326;42.650;23.248;2023-10-08T09:21:27;5.28;;;4.18;;
53040;SDS011;39326;42.650;23.248;2023-10-08T09:23:53;6.25;;;3.75;;
53040;SDS011;39326;42.650;23.248;2023-10-08T09:26:25;5.28;;;4.45;;
53040;SDS011;39326;42.650;23.248;2023-10-08T09:28:54;5.15;;;4.03;;
53040;SDS011;39326;42.650;23.248;2023-10-08T09:31:22;5.28;;;4.55;;
53040;SDS011;39326;42.650;23.248;2023-10-08T09:33:54;6.72;;;4.50;;
53040;SDS011;39326;42.650;23.248;2023-10-08T09:36:20;4.75;;;4.25;;
53040;SDS011;39326;42.650;23.248;2023-10-08T09:38:56;6.03;;;4.40;;
53040;SDS011;39326;42.650;23.248;2023-10-08T09:41:24;5.43;;;4.38;;
53040;SDS011;39326;42.650;23.248;2023-10-08T09:43:51;7.45;;;4.53;;
53040;SDS011;39326;42.650;23.248;2023-10-08T09:46:18;5.97;;;4.72;;
53040;SDS011;39326;42.650;23.248;2023-10-08T09:48:54;5.72;;;5.13;;
53040;SDS011;39326;42.650;23.248;2023-10-08T09:51:24;10.45;;;4.32;;
53040;SDS011;39326;42.650;23.248;2023-10-08T09:56:35;7.05;;;4.22;;
53040;SDS011;39326;42.650;23.248;2023-10-08T09:59:01;4.75;;;4.25;;
53040;SDS011;39326;42.650;23.248;2023-10-08T10:01:28;4.82;;;4.35;;
53040;SDS011;39326;42.650;23.248;2023-10-08T10:03:57;5.20;;;4.32;;
53040;SDS011;39326;42.650;23.248;2023-10-08T10:06:25;4.70;;;4.20;;
53040;SDS011;39326;42.650;23.248;2023-10-08T10:08:51;6.10;;;4.70;;
53040;SDS011;39326;42.650;23.248;2023-10-08T10:11:25;4.57;;;4.03;;
53040;SDS011;39326;42.650;23.248;2023-10-08T10:13:58;4.65;;;4.10;;
53040;SDS011;39326;42.650;23.248;2023-10-08T10:16:27;6.13;;;4.32;;
53040;SDS011;39326;42.650;23.248;2023-10-08T10:18:56;5.13;;;4.10;;
53040;SDS011;39326;42.650;23.248;2023-10-08T10:21:30;4.15;;;3.65;;
53040;SDS011;39326;42.650;23.248;2023-10-08T10:23:57;5.60;;;4.18;;
53040;SDS011;39326;42.650;23.248;2023-10-08T10:26:30;4.22;;;3.78;;
53040;SDS011;39326;42.650;23.248;2023-10-08T10:34:11;5.80;;;4.35;;
53040;SDS011;39326;42.650;23.248;2023-10-08T10:36:38;5.90;;;4.45;;
53040;SDS011;39326;42.650;23.248;2023-10-08T10:39:05;4.60;;;4.18;;
53040;SDS011;39326;42.650;23.248;2023-10-08T10:41:41;4.82;;;4.00;;
53040;SDS011;39326;42.650;23.248;2023-10-08T10:44:13;5.03;;;3.85;;
53040;SDS011;39326;42.650;23.248;2023-10-08T10:46:43;7.05;;;4.13;;
53040;SDS011;39326;42.650;23.248;2023-10-08T10:49:16;3.90;;;3.40;;
53040;SDS011;39326;42.650;23.248;2023-10-08T10:51:56;4.38;;;3.25;;
53040;SDS011;39326;42.650;23.248;2023-10-08T10:54:26;4.82;;;3.63;;
53040;SDS011;39326;42.650;23.248;2023-10-08T10:57:01;5.43;;;3.35;;
53040;SDS011;39326;42.650;23.248;2023-10-08T10:59:30;4.15;;;3.63;;
53040;SDS011;39326;42.650;23.248;2023-10-08T11:02:04;5.95;;;3.78;;
53040;SDS011;39326;42.650;23.248;2023-10-08T11:04:32;5.03;;;3.90;;
53040;SDS011;39326;42.650;23.248;2023-10-08T11:06:59;5.18;;;3.10;;
53040;SDS011;39326;42.650;23.248;2023-10-08T11:09:25;5.78;;;3.75;;
53040;SDS011;39326;42.650;23.248;2023-10-08T11:12:02;4.20;;;3.00;;
53040;SDS011;39326;42.650;23.248;2023-10-08T11:14:36;3.80;;;2.70;;
53040;SDS011;39326;42.650;23.248;2023-10-08T11:17:16;5.80;;;3.15;;
53040;SDS011;39326;42.650;23.248;2023-10-08T11:19:43;6.53;;;3.38;;
53040;SDS011;39326;42.650;23.248;2023-10-08T11:22:11;5.30;;;3.60;;
53040;SDS011;39326;42.650;23.248;2023-10-08T11:24:41;3.92;;;2.97;;
53040;SDS011;39326;42.650;23.248;2023-10-08T11:27:09;6.78;;;4.05;;
53040;SDS011;39326;42.650;23.248;2023-10-08T11:29:47;7.00;;;3.40;;
53040;SDS011;39326;42.650;23.248;2023-10-08T11:32:14;5.82;;;3.72;;
53040;SDS011;39326;42.650;23.248;2023-10-08T11:34:53;4.10;;;3.15;;
53040;SDS011;39326;42.650;23.248;2023-10-08T11:37:31;7.00;;;3.35;;
53040;SDS011;39326;42.650;23.248;2023-10-08T11:40:00;4.47;;;3.08;;
53040;SDS011;39326;42.650;23.248;2023-10-08T11:42:43;6.07;;;3.22;;
53040;SDS011;39326;42.650;23.248;2023-10-08T11:45:09;5.80;;;3.13;;
53040;SDS011;39326;42.650;23.248;2023-10-08T11:48:03;7.15;;;3.75;;
53040;SDS011;39326;42.650;23.248;2023-10-08T11:50:37;6.60;;;3.15;;
53040;SDS011;39326;42.650;23.248;2023-10-08T11:53:04;6.25;;;3.60;;
53040;SDS011;39326;42.650;23.248;2023-10-08T11:55:34;7.05;;;3.97;;
53040;SDS011;39326;42.650;23.248;2023-10-08T11:58:02;9.05;;;3.72;;
53040;SDS011;39326;42.650;23.248;2023-10-08T12:00:36;9.98;;;4.35;;
53040;SDS011;39326;42.650;23.248;2023-10-08T12:03:09;8.68;;;3.88;;
53040;SDS011;39326;42.650;23.248;2023-10-08T12:05:43;8.65;;;3.50;;
53040;SDS011;39326;42.650;23.248;2023-10-08T12:08:12;4.65;;;3.25;;
53040;SDS011;39326;42.650;23.248;2023-10-08T12:10:41;8.25;;;3.78;;
53040;SDS011;39326;42.650;23.248;2023-10-08T12:13:08;8.60;;;3.47;;
53040;SDS011;39326;42.650;23.248;2023-10-08T12:15:35;7.47;;;3.80;;
53040;SDS011;39326;42.650;23.248;2023-10-08T12:18:04;5.13;;;3.30;;
53040;SDS011;39326;42.650;23.248;2023-10-08T12:20:48;5.00;;;3.50;;
53040;SDS011;39326;42.650;23.248;2023-10-08T12:23:14;4.93;;;3.40;;
53040;SDS011;39326;42.650;23.248;2023-10-08T12:25:52;6.18;;;3.35;;
53040;SDS011;39326;42.650;23.248;2023-10-08T12:28:20;5.80;;;3.95;;
53040;SDS011;39326;42.650;23.248;2023-10-08T12:30:48;5.50;;;3.80;;
53040;SDS011;39326;42.650;23.248;2023-10-08T12:33:17;7.05;;;4.15;;
53040;SDS011;39326;42.650;23.248;2023-10-08T12:35:47;6.10;;;3.50;;
53040;SDS011;39326;42.650;23.248;2023-10-08T12:38:13;6.05;;;3.65;;
53040;SDS011;39326;42.650;23.248;2023-10-08T12:40:39;6.13;;;3.80;;
53040;SDS011;39326;42.650;23.248;2023-10-08T12:43:24;7.40;;;3.97;;
53040;SDS011;39326;42.650;23.248;2023-10-08T12:45:53;6.40;;;3.97;;
53040;SDS011;39326;42.650;23.248;2023-10-08T12:48:26;5.50;;;3.60;;
53040;SDS011;39326;42.650;23.248;2023-10-08T12:50:52;7.95;;;3.90;;
53040;SDS011;39326;42.650;23.248;2023-10-08T12:53:27;7.55;;;3.90;;
53040;SDS011;39326;42.650;23.248;2023-10-08T12:56:02;7.80;;;3.70;;
53040;SDS011;39326;42.650;23.248;2023-10-08T12:58:32;6.93;;;3.92;;
53040;SDS011;39326;42.650;23.248;2023-10-08T13:01:13;6.38;;;3.78;;
53040;SDS011;39326;42.650;23.248;2023-10-08T13:03:42;5.68;;;3.88;;
53040;SDS011;39326;42.650;23.248;2023-10-08T13:06:08;7.65;;;4.43;;
53040;SDS011;39326;42.650;23.248;2023-10-08T13:08:39;7.53;;;3.70;;
53040;SDS011;39326;42.650;23.248;2023-10-08T13:11:05;9.32;;;4.10;;
53040;SDS011;39326;42.650;23.248;2023-10-08T13:13:30;8.38;;;3.83;;
53040;SDS011;39326;42.650;23.248;2023-10-08T13:16:01;7.15;;;3.95;;
53040;SDS011;39326;42.650;23.248;2023-10-08T13:18:32;7.82;;;3.92;;
53040;SDS011;39326;42.650;23.248;2023-10-08T13:20:58;6.03;;;3.85;;
53040;SDS011;39326;42.650;23.248;2023-10-08T13:23:23;8.65;;;3.90;;
53040;SDS011;39326;42.650;23.248;2023-10-08T13:25:50;5.68;;;3.45;;
53040;SDS011;39326;42.650;23.248;2023-10-08T13:28:29;6.60;;;4.25;;
53040;SDS011;39326;42.650;23.248;2023-10-08T13:30:54;8.10;;;5.75;;
53040;SDS011;39326;42.650;23.248;2023-10-08T13:33:20;36.90;;;33.00;;
53040;SDS011;39326;42.650;23.248;2023-10-08T13:35:47;32.47;;;29.52;;
53040;SDS011;39326;42.650;23.248;2023-10-08T13:38:18;7.70;;;4.70;;
53040;SDS011;39326;42.650;23.248;2023-10-08T13:40:46;8.70;;;3.97;;
53040;SDS011;39326;42.650;23.248;2023-10-08T13:43:30;9.30;;;4.00;;
53040;SDS011;39326;42.650;23.248;2023-10-08T13:46:03;5.13;;;4.47;;
53040;SDS011;39326;42.650;23.248;2023-10-08T13:48:33;5.75;;;3.83;;
53040;SDS011;39326;42.650;23.248;2023-10-08T13:51:01;8.73;;;3.88;;
53040;SDS011;39326;42.650;23.248;2023-10-08T13:53:28;6.45;;;3.97;;
53040;SDS011;39326;42.650;23.248;2023-10-08T13:55:58;7.65;;;4.25;;
53040;SDS011;39326;42.650;23.248;2023-10-08T13:58:28;6.25;;;3.67;;
53040;SDS011;39326;42.650;23.248;2023-10-08T14:00:55;8.18;;;3.78;;
53040;SDS011;39326;42.650;23.248;2023-10-08T14:03:26;7.05;;;4.03;;
53040;SDS011;39326;42.650;23.248;2023-10-08T14:05:53;10.02;;;4.78;;
53040;SDS011;39326;42.650;23.248;2023-10-08T14:08:19;9.32;;;4.50;;
53040;SDS011;39326;42.650;23.248;2023-10-08T14:10:45;9.57;;;4.70;;
53040;SDS011;39326;42.650;23.248;2023-10-08T14:13:13;9.15;;;4.45;;
53040;SDS011;39326;42.650;23.248;2023-10-08T14:15:44;9.57;;;5.63;;
53040;SDS011;39326;42.650;23.248;2023-10-08T14:18:13;6.65;;;4.65;;
53040;SDS011;39326;42.650;23.248;2023-10-08T14:20:43;6.45;;;3.97;;
53040;SDS011;39326;42.650;23.248;2023-10-08T14:23:12;12.48;;;9.35;;
53040;SDS011;39326;42.650;23.248;2023-10-08T14:25:37;7.32;;;5.70;;
53040;SDS011;39326;42.650;23.248;2023-10-08T14:28:09;9.32;;;7.07;;
53040;SDS011;39326;42.650;23.248;2023-10-08T14:30:46;10.15;;;5.93;;
53040;SDS011;39326;42.650;23.248;2023-10-08T14:33:15;6.82;;;3.97;;
53040;SDS011;39326;42.650;23.248;2023-10-08T14:35:49;8.60;;;4.20;;
53040;SDS011;39326;42.650;23.248;2023-10-08T14:38:34;11.15;;;4.53;;
53040;SDS011;39326;42.650;23.248;2023-10-08T14:41:17;9.68;;;3.97;;
53040;SDS011;39326;42.650;23.248;2023-10-08T14:44:01;9.63;;;3.83;;
53040;SDS011;39326;42.650;23.248;2023-10-08T14:46:29;12.13;;;9.48;;
53040;SDS011;39326;42.650;23.248;2023-10-08T14:48:58;15.05;;;5.47;;
53040;SDS011;39326;42.650;23.248;2023-10-08T14:51:23;9.63;;;4.07;;
53040;SDS011;39326;42.650;23.248;2023-10-08T14:53:49;12.20;;;4.25;;
53040;SDS011;39326;42.650;23.248;2023-10-08T14:56:16;10.85;;;4.28;;
53040;SDS011;39326;42.650;23.248;2023-10-08T14:58:43;14.85;;;4.80;;
53040;SDS011;39326;42.650;23.248;2023-10-08T15:01:09;12.90;;;4.82;;
53040;SDS011;39326;42.650;23.248;2023-10-08T15:03:38;12.50;;;4.72;;
53040;SDS011;39326;42.650;23.248;2023-10-08T15:06:04;13.98;;;4.72;;
53040;SDS011;39326;42.650;23.248;2023-10-08T15:08:29;8.98;;;3.55;;